Time;durP1;ratioP1;P1;durP2;ratioP2;P2;SDS_P1;SDS_P2;PMS_P1;PMS_P2;Temp;Humidity;BMP_temperature;BMP_pressure;BME280_temperature;BME280_humidity;BME280_pressure;Samples;Min_cycle;Max_cycle;Signal;HPM_P1;HPM_P2
2021/09/03 00:01:29;;;;;;;19.60;10.13;;;16.70;83.40;;;;;;5013566;28;20037;-76
2021/09/03 00:03:55;;;;;;;21.30;10.30;;;16.70;83.60;;;;;;5015154;28;20034;-76
2021/09/03 00:06:20;;;;;;;22.00;11.43;;;16.60;83.70;;;;;;5013931;28;20593;-76
2021/09/03 00:08:46;;;;;;;22.67;11.38;;;16.60;83.90;;;;;;5014859;28;20489;-76
2021/09/03 00:11:12;;;;;;;20.38;10.15;;;16.60;84.00;;;;;;5014115;28;20116;-76
2021/09/03 00:13:38;;;;;;;20.13;10.65;;;16.60;84.10;;;;;;5014788;28;20037;-76
2021/09/03 00:16:04;;;;;;;20.40;10.13;;;16.60;84.10;;;;;;5013900;28;20026;-76
2021/09/03 00:18:29;;;;;;;17.13;9.95;;;16.60;84.10;;;;;;4997328;28;20053;-76
2021/09/03 00:20:55;;;;;;;18.23;10.52;;;16.50;84.20;;;;;;5013666;28;20113;-76
2021/09/03 00:23:21;;;;;;;18.40;10.77;;;16.50;84.30;;;;;;5013508;28;20033;-76
2021/09/03 00:25:47;;;;;;;20.20;10.88;;;16.50;84.80;;;;;;5014693;28;20025;-76
2021/09/03 00:28:12;;;;;;;15.68;9.68;;;16.50;84.70;;;;;;5014496;28;20084;-76
2021/09/03 00:30:38;;;;;;;19.65;10.20;;;16.40;84.60;;;;;;5013423;28;20033;-76
2021/09/03 00:33:04;;;;;;;17.33;10.07;;;16.40;84.70;;;;;;5015085;28;20022;-76
2021/09/03 00:35:30;;;;;;;21.98;11.30;;;16.40;84.70;;;;;;5014648;28;20458;-76
2021/09/03 00:37:55;;;;;;;20.00;11.40;;;16.40;84.70;;;;;;5014482;28;20474;-76
2021/09/03 00:40:21;;;;;;;19.20;10.57;;;16.40;84.80;;;;;;5013370;28;20030;-76
2021/09/03 00:42:47;;;;;;;20.88;10.15;;;16.30;84.80;;;;;;5013252;28;20034;-76
2021/09/03 00:45:12;;;;;;;19.58;10.50;;;16.30;84.90;;;;;;5013525;28;20034;-76
2021/09/03 00:47:38;;;;;;;19.45;11.10;;;16.30;84.90;;;;;;5014645;28;20034;-76
2021/09/03 00:50:05;;;;;;;15.93;9.75;;;16.20;85.00;;;;;;4996330;28;20022;-75
2021/09/03 00:52:31;;;;;;;19.48;10.85;;;16.20;85.10;;;;;;5029404;28;20474;-76
2021/09/03 00:54:58;;;;;;;19.63;11.20;;;16.20;85.20;;;;;;5012896;28;20026;-76
2021/09/03 00:57:25;;;;;;;22.02;11.45;;;16.20;85.30;;;;;;4996720;28;20037;-76
2021/09/03 00:59:53;;;;;;;17.38;10.77;;;16.20;85.20;;;;;;5014106;28;20018;-76
2021/09/03 01:02:20;;;;;;;20.45;10.45;;;16.10;85.30;;;;;;5012912;28;20120;-76
2021/09/03 01:04:46;;;;;;;19.52;10.80;;;16.10;86.00;;;;;;4996754;28;20030;-78
2021/09/03 01:07:12;;;;;;;22.30;12.32;;;16.20;85.60;;;;;;4996612;28;20057;-76
2021/09/03 01:09:38;;;;;;;19.67;12.07;;;16.10;85.60;;;;;;5012921;28;20057;-76
2021/09/03 01:12:03;;;;;;;17.88;11.60;;;16.10;85.60;;;;;;5012999;28;20088;-76
2021/09/03 01:14:29;;;;;;;19.77;11.63;;;16.00;85.80;;;;;;5013006;28;20034;-76
2021/09/03 01:16:55;;;;;;;20.30;11.63;;;16.10;86.60;;;;;;5014035;28;20034;-77
2021/09/03 01:19:21;;;;;;;18.90;11.05;;;16.00;86.00;;;;;;5012683;28;20137;-76
2021/09/03 01:21:51;;;;;;;19.00;11.63;;;16.00;86.10;;;;;;5012556;28;20076;-76
2021/09/03 01:24:18;;;;;;;24.02;13.40;;;15.90;86.10;;;;;;5013610;28;20466;-77
2021/09/03 01:26:44;;;;;;;21.70;12.07;;;15.90;86.40;;;;;;5012654;28;20064;-76
2021/09/03 01:29:12;;;;;;;19.35;11.80;;;15.90;86.60;;;;;;5013573;28;20018;-76
2021/09/03 01:31:38;;;;;;;20.67;11.43;;;15.90;86.60;;;;;;5012354;28;20389;-76
2021/09/03 01:34:03;;;;;;;23.13;12.93;;;15.80;86.50;;;;;;5028954;28;20026;-74
2021/09/03 01:36:30;;;;;;;22.23;12.73;;;15.80;86.70;;;;;;5012469;28;20065;-73
2021/09/03 01:38:57;;;;;;;20.27;12.82;;;15.80;86.70;;;;;;5028817;28;20072;-73
2021/09/03 01:41:23;;;;;;;27.80;14.27;;;15.80;87.50;;;;;;5014003;28;20033;-73
2021/09/03 01:43:49;;;;;;;22.48;12.85;;;15.70;87.00;;;;;;5012447;28;20053;-73
2021/09/03 01:46:15;;;;;;;23.52;13.98;;;15.70;87.20;;;;;;5013792;28;20451;-73
2021/09/03 01:48:41;;;;;;;24.45;14.65;;;15.70;87.40;;;;;;4995837;28;20049;-73
2021/09/03 01:51:06;;;;;;;21.95;12.52;;;15.60;87.60;;;;;;5013616;28;20058;-73
2021/09/03 01:53:32;;;;;;;18.65;11.75;;;15.60;87.70;;;;;;5028598;28;20088;-73
2021/09/03 01:55:58;;;;;;;19.58;13.10;;;15.60;87.70;;;;;;5012067;28;20038;-73
2021/09/03 01:58:24;;;;;;;21.75;13.15;;;15.60;87.90;;;;;;5012268;28;20037;-74
2021/09/03 02:00:49;;;;;;;23.38;13.50;;;15.60;88.00;;;;;;5014270;28;20034;-74
2021/09/03 02:03:15;;;;;;;26.10;13.38;;;15.50;88.00;;;;;;5032554;28;20107;-74
2021/09/03 02:05:42;;;;;;;28.40;15.25;;;15.50;88.20;;;;;;5015983;28;20033;-73
2021/09/03 02:08:07;;;;;;;24.20;13.55;;;15.50;88.60;;;;;;5015951;28;20025;-74
2021/09/03 02:10:33;;;;;;;28.58;14.38;;;15.50;88.40;;;;;;4999619;28;20121;-74
2021/09/03 02:12:58;;;;;;;25.58;14.18;;;15.40;88.50;;;;;;5017165;28;20022;-74
2021/09/03 02:15:24;;;;;;;25.20;14.27;;;15.40;88.70;;;;;;5016310;28;20042;-74
2021/09/03 02:17:50;;;;;;;24.67;13.82;;;15.40;88.80;;;;;;4999843;28;20030;-74
2021/09/03 02:20:16;;;;;;;26.08;14.25;;;15.40;88.90;;;;;;5015599;28;20255;-74
2021/09/03 02:22:41;;;;;;;26.58;14.95;;;15.40;89.00;;;;;;5016889;28;20034;-74
2021/09/03 02:25:08;;;;;;;26.02;14.60;;;15.40;89.20;;;;;;5015743;28;20471;-74
2021/09/03 02:27:33;;;;;;;22.65;13.38;;;15.40;89.30;;;;;;5032518;28;20128;-74
2021/09/03 02:29:59;;;;;;;22.02;13.88;;;15.30;89.30;;;;;;5015969;28;20092;-74
2021/09/03 02:32:25;;;;;;;22.23;14.20;;;15.30;89.40;;;;;;5016772;28;20030;-74
2021/09/03 02:34:50;;;;;;;20.88;12.77;;;15.30;89.50;;;;;;4999482;28;20033;-74
2021/09/03 02:37:16;;;;;;;20.88;14.00;;;15.30;89.60;;;;;;5016797;28;20482;-74
2021/09/03 02:39:42;;;;;;;23.58;13.60;;;15.30;89.70;;;;;;5015517;28;20029;-74
2021/09/03 02:42:08;;;;;;;23.50;13.43;;;15.30;89.70;;;;;;5016634;28;20030;-73
2021/09/03 02:44:33;;;;;;;27.70;13.93;;;15.30;89.90;;;;;;5032230;28;20386;-74
2021/09/03 02:46:59;;;;;;;23.05;13.63;;;15.30;90.00;;;;;;5016983;28;20072;-74
2021/09/03 02:49:24;;;;;;;22.13;13.88;;;15.20;90.00;;;;;;4999182;28;20036;-74
2021/09/03 02:51:50;;;;;;;22.55;14.18;;;15.20;90.00;;;;;;5016748;28;20026;-74
2021/09/03 02:54:16;;;;;;;22.75;13.65;;;15.20;90.00;;;;;;5016235;28;20061;-74
2021/09/03 02:56:41;;;;;;;22.00;13.98;;;15.20;90.00;;;;;;5031863;28;20418;-74
2021/09/03 02:59:07;;;;;;;24.50;14.82;;;15.20;90.10;;;;;;5016526;28;20482;-74
2021/09/03 03:01:33;;;;;;;23.92;13.68;;;15.20;90.10;;;;;;5014891;28;20053;-74
2021/09/03 03:03:58;;;;;;;21.10;13.13;;;15.20;90.10;;;;;;5014156;28;20379;-74
2021/09/03 03:06:24;;;;;;;21.33;13.85;;;15.10;90.10;;;;;;5016073;28;20106;-74
2021/09/03 03:08:49;;;;;;;25.98;15.25;;;15.10;90.10;;;;;;5015933;28;20079;-74
2021/09/03 03:11:15;;;;;;;22.70;14.50;;;15.10;90.20;;;;;;5014951;28;20549;-74
2021/09/03 03:13:47;;;;;;;23.13;15.10;;;15.10;90.20;;;;;;5014097;28;20029;-74
2021/09/03 03:16:14;;;;;;;25.10;14.63;;;15.10;90.20;;;;;;5031425;28;20026;-74
2021/09/03 03:18:40;;;;;;;23.80;13.52;;;15.00;90.20;;;;;;5015702;28;20056;-74
2021/09/03 03:21:05;;;;;;;29.15;16.52;;;15.10;90.30;;;;;;5031468;28;20029;-74
2021/09/03 03:23:31;;;;;;;24.40;16.08;;;15.00;90.60;;;;;;5015518;28;20479;-74
2021/09/03 03:25:56;;;;;;;26.23;16.67;;;15.00;90.30;;;;;;5014627;28;20467;-75
2021/09/03 03:28:22;;;;;;;33.75;15.15;;;15.00;90.30;;;;;;5014724;28;20088;-74
2021/09/03 03:30:48;;;;;;;21.38;15.00;;;15.00;90.30;;;;;;4997975;28;20026;-74
2021/09/03 03:33:13;;;;;;;28.67;17.05;;;14.90;90.30;;;;;;5030953;28;20033;-74
2021/09/03 03:35:39;;;;;;;26.85;15.38;;;14.90;90.40;;;;;;5014922;28;20034;-74
2021/09/03 03:38:06;;;;;;;27.08;17.05;;;14.90;90.40;;;;;;5015586;28;20033;-74
2021/09/03 03:40:38;;;;;;;23.23;14.52;;;14.90;90.50;;;;;;5030289;28;20061;-76
2021/09/03 03:43:04;;;;;;;24.45;15.75;;;14.90;90.50;;;;;;5015728;28;20057;-74
2021/09/03 03:45:30;;;;;;;26.45;16.35;;;14.80;90.40;;;;;;5015257;28;20018;-73
2021/09/03 03:47:55;;;;;;;26.48;16.13;;;14.80;90.50;;;;;;5015538;28;20057;-74
2021/09/03 03:50:21;;;;;;;26.60;15.93;;;14.80;90.50;;;;;;5015296;28;20497;-73
2021/09/03 03:52:46;;;;;;;27.40;16.50;;;14.70;90.60;;;;;;5014194;28;20037;-73
2021/09/03 03:55:12;;;;;;;25.15;15.55;;;14.70;90.60;;;;;;5015593;28;20034;-73
2021/09/03 03:57:38;;;;;;;26.65;17.45;;;14.70;90.70;;;;;;5015054;28;20045;-73
2021/09/03 04:00:05;;;;;;;27.65;17.45;;;14.70;90.80;;;;;;5030191;28;20033;-73
2021/09/03 04:02:30;;;;;;;26.92;16.77;;;14.60;90.80;;;;;;5015192;28;20459;-73
2021/09/03 04:04:56;;;;;;;26.90;17.48;;;14.60;90.80;;;;;;5015038;28;20037;-73
2021/09/03 04:07:22;;;;;;;34.03;17.23;;;14.60;90.90;;;;;;5030608;28;20022;-73
2021/09/03 04:09:47;;;;;;;27.88;18.65;;;14.60;90.90;;;;;;5014025;28;20037;-74
2021/09/03 04:12:13;;;;;;;33.55;17.58;;;14.60;90.90;;;;;;5015272;28;20037;-74
2021/09/03 04:14:40;;;;;;;33.13;18.70;;;14.60;90.90;;;;;;5013770;28;20081;-73
2021/09/03 04:17:06;;;;;;;30.20;17.75;;;14.50;90.90;;;;;;5013658;28;20029;-74
2021/09/03 04:19:32;;;;;;;27.90;17.23;;;14.60;91.30;;;;;;5013608;28;20438;-74
2021/09/03 04:21:58;;;;;;;29.50;17.55;;;14.50;91.10;;;;;;5013587;28;20486;-74
2021/09/03 04:24:23;;;;;;;29.92;18.42;;;14.50;91.10;;;;;;5013973;28;20034;-74
2021/09/03 04:26:49;;;;;;;32.15;18.27;;;14.50;91.20;;;;;;5014328;28;20049;-74
2021/09/03 04:29:14;;;;;;;31.63;19.23;;;14.50;91.20;;;;;;5029475;28;20057;-74
2021/09/03 04:31:40;;;;;;;28.27;17.85;;;14.40;91.20;;;;;;5029682;28;20037;-74
2021/09/03 04:34:06;;;;;;;32.92;18.55;;;14.40;91.20;;;;;;5029767;28;20030;-74
2021/09/03 04:36:31;;;;;;;28.67;18.98;;;14.40;91.40;;;;;;5014359;28;20053;-74
2021/09/03 04:38:57;;;;;;;31.23;19.42;;;14.40;91.40;;;;;;5013319;28;20022;-74
2021/09/03 04:41:22;;;;;;;38.45;20.25;;;14.40;91.40;;;;;;5014421;28;20029;-74
2021/09/03 04:43:48;;;;;;;33.03;19.23;;;14.40;91.40;;;;;;5029357;28;20126;-74
2021/09/03 04:46:14;;;;;;;28.98;17.58;;;14.40;91.40;;;;;;5013280;28;20386;-74
2021/09/03 04:48:39;;;;;;;27.52;17.80;;;14.30;91.50;;;;;;5013377;28;20490;-74
2021/09/03 04:51:05;;;;;;;32.30;19.52;;;14.30;91.60;;;;;;4996861;28;20032;-74
2021/09/03 04:53:30;;;;;;;32.05;19.75;;;14.30;91.60;;;;;;5029212;28;20430;-74
2021/09/03 04:55:56;;;;;;;30.98;18.60;;;14.30;91.70;;;;;;5014121;28;20034;-73
2021/09/03 04:58:22;;;;;;;35.80;19.35;;;14.30;91.70;;;;;;5013059;28;20057;-73
2021/09/03 05:00:47;;;;;;;31.05;18.13;;;14.30;91.70;;;;;;5012386;28;20481;-73
2021/09/03 05:03:13;;;;;;;29.83;19.08;;;14.20;91.70;;;;;;5012907;28;20065;-73
2021/09/03 05:05:38;;;;;;;33.53;19.90;;;14.20;91.80;;;;;;5014199;28;20036;-74
2021/09/03 05:08:06;;;;;;;30.63;19.08;;;14.20;91.80;;;;;;5012859;28;20222;-72
2021/09/03 05:10:32;;;;;;;30.48;18.52;;;14.20;91.80;;;;;;5014286;28;20022;-72
2021/09/03 05:12:58;;;;;;;33.33;19.25;;;14.20;91.90;;;;;;5029431;28;20339;-73
2021/09/03 05:15:34;;;;;;;31.10;18.80;;;14.20;91.90;;;;;;5012327;28;20089;-77
2021/09/03 05:18:00;;;;;;;32.15;19.75;;;14.20;91.90;;;;;;5012385;28;20049;-72
2021/09/03 05:20:25;;;;;;;36.75;20.20;;;14.20;92.00;;;;;;5011926;28;20498;-73
2021/09/03 05:22:51;;;;;;;32.20;20.33;;;14.20;92.00;;;;;;5013428;28;20164;-72
2021/09/03 05:25:17;;;;;;;32.05;19.55;;;14.20;92.00;;;;;;5012616;28;20076;-73
2021/09/03 05:27:43;;;;;;;34.45;20.67;;;14.20;92.00;;;;;;5013434;28;20033;-73
2021/09/03 05:30:09;;;;;;;29.45;19.50;;;14.20;92.10;;;;;;5012973;28;20030;-73
2021/09/03 05:32:36;;;;;;;33.65;19.70;;;14.30;92.10;;;;;;5028753;28;20050;-73
2021/09/03 05:35:04;;;;;;;38.95;21.60;;;14.20;92.20;;;;;;5013326;28;20026;-73
2021/09/03 05:37:29;;;;;;;32.05;20.70;;;14.20;92.30;;;;;;5012643;28;20037;-73
2021/09/03 05:39:55;;;;;;;32.95;21.23;;;14.30;92.30;;;;;;5012148;28;20064;-73
2021/09/03 05:42:21;;;;;;;33.10;21.70;;;14.30;92.40;;;;;;5011412;28;20096;-73
2021/09/03 05:44:46;;;;;;;31.48;20.95;;;14.30;92.50;;;;;;5008047;28;20113;-73
2021/09/03 05:47:12;;;;;;;31.27;20.55;;;14.40;92.40;;;;;;5012011;28;20032;-73
2021/09/03 05:49:37;;;;;;;31.02;19.27;;;14.40;92.50;;;;;;5012976;28;20390;-76
2021/09/03 05:52:03;;;;;;;35.50;19.77;;;14.40;92.50;;;;;;5017019;28;20038;-74
2021/09/03 05:54:29;;;;;;;32.20;20.20;;;14.40;92.60;;;;;;5014309;28;20471;-73
2021/09/03 05:56:54;;;;;;;33.45;20.15;;;14.40;92.60;;;;;;5011031;28;20038;-73
2021/09/03 05:59:21;;;;;;;29.83;19.05;;;14.40;92.70;;;;;;5013298;28;20037;-73
2021/09/03 06:01:47;;;;;;;33.97;21.17;;;14.50;92.70;;;;;;4996417;28;20033;-73
2021/09/03 06:04:12;;;;;;;36.53;20.25;;;14.50;92.80;;;;;;5013002;28;20030;-73
2021/09/03 06:06:38;;;;;;;32.42;20.63;;;14.60;92.80;;;;;;5014146;28;20516;-74
2021/09/03 06:09:04;;;;;;;33.90;21.13;;;14.60;92.80;;;;;;5013189;28;20049;-73
2021/09/03 06:11:29;;;;;;;31.92;19.95;;;14.60;92.80;;;;;;4993761;28;20505;-73
2021/09/03 06:13:55;;;;;;;31.77;20.58;;;14.70;92.80;;;;;;5025379;28;20105;-73
2021/09/03 06:16:22;;;;;;;29.88;18.98;;;14.70;92.80;;;;;;5014080;28;20117;-73
2021/09/03 06:18:48;;;;;;;32.78;20.02;;;14.80;92.90;;;;;;4995188;28;20188;-73
2021/09/03 06:21:15;;;;;;;33.53;20.33;;;14.80;92.90;;;;;;5018136;28;20053;-73
2021/09/03 06:23:41;;;;;;;33.03;19.95;;;14.80;92.80;;;;;;5017404;28;20041;-74
2021/09/03 06:26:07;;;;;;;28.98;19.17;;;14.90;93.20;;;;;;5013220;28;20026;-74
2021/09/03 06:28:33;;;;;;;33.70;20.60;;;14.90;92.90;;;;;;5012139;28;20386;-74
2021/09/03 06:30:58;;;;;;;30.58;20.52;;;14.90;93.20;;;;;;5012792;28;20026;-73
2021/09/03 06:33:24;;;;;;;28.30;18.00;;;14.90;92.90;;;;;;5013498;28;20427;-73
2021/09/03 06:35:50;;;;;;;31.77;18.65;;;15.00;93.00;;;;;;5012341;28;20038;-74
2021/09/03 06:38:15;;;;;;;34.00;19.23;;;15.10;93.00;;;;;;4995428;28;20565;-74
2021/09/03 06:40:41;;;;;;;29.65;18.25;;;15.10;93.00;;;;;;5012200;28;20471;-76
2021/09/03 06:43:07;;;;;;;30.35;19.17;;;15.10;93.00;;;;;;5013258;28;20026;-75
2021/09/03 06:45:32;;;;;;;31.20;18.00;;;15.20;93.00;;;;;;5012790;28;20026;-76
2021/09/03 06:47:58;;;;;;;26.88;18.17;;;15.20;92.90;;;;;;4996041;28;20018;-75
2021/09/03 06:50:24;;;;;;;25.77;16.85;;;15.30;92.90;;;;;;5015889;28;20014;-74
2021/09/03 06:52:49;;;;;;;31.85;18.02;;;15.30;92.90;;;;;;5014837;28;20037;-74
2021/09/03 06:55:15;;;;;;;28.35;18.00;;;15.40;92.90;;;;;;5015040;28;20029;-75
2021/09/03 06:57:42;;;;;;;29.50;17.48;;;15.40;92.90;;;;;;5015947;28;20034;-75
2021/09/03 07:00:09;;;;;;;30.85;17.67;;;15.50;93.20;;;;;;5014542;28;20054;-76
2021/09/03 07:02:35;;;;;;;27.17;16.52;;;15.50;92.80;;;;;;5030769;28;20034;-74
2021/09/03 07:05:01;;;;;;;35.60;18.75;;;15.60;92.80;;;;;;5015756;28;20029;-75
2021/09/03 07:07:27;;;;;;;28.10;17.02;;;15.60;92.80;;;;;;5015671;28;20097;-76
2021/09/03 07:09:53;;;;;;;24.15;16.27;;;15.60;92.80;;;;;;5015697;28;20117;-75
2021/09/03 07:12:19;;;;;;;30.27;15.32;;;15.70;92.80;;;;;;5009286;28;20022;-74
2021/09/03 07:14:45;;;;;;;25.30;15.98;;;15.70;92.80;;;;;;5015716;28;20053;-75
2021/09/03 07:17:11;;;;;;;28.52;17.25;;;15.80;92.70;;;;;;5014283;28;20053;-74
2021/09/03 07:19:37;;;;;;;28.15;16.75;;;15.80;92.70;;;;;;5015536;28;20050;-76
2021/09/03 07:22:03;;;;;;;23.10;15.13;;;15.90;92.70;;;;;;5015338;28;20044;-74
2021/09/03 07:24:30;;;;;;;27.38;16.20;;;15.90;92.70;;;;;;5015597;28;20022;-76
2021/09/03 07:26:57;;;;;;;25.67;17.05;;;16.00;92.70;;;;;;5014013;28;20026;-74
2021/09/03 07:29:22;;;;;;;27.02;17.33;;;16.00;92.70;;;;;;5014083;28;20010;-74
2021/09/03 07:31:48;;;;;;;24.65;16.55;;;16.10;92.70;;;;;;5014120;28;20049;-76
2021/09/03 07:34:14;;;;;;;25.58;16.23;;;16.10;92.70;;;;;;4997727;28;20018;-74
2021/09/03 07:36:39;;;;;;;24.70;15.50;;;16.20;92.70;;;;;;5015097;28;20451;-74
2021/09/03 07:39:05;;;;;;;26.73;15.40;;;16.30;92.70;;;;;;5030455;28;20524;-76
2021/09/03 07:41:31;;;;;;;22.65;14.70;;;16.30;92.60;;;;;;4997463;28;20030;-76
2021/09/03 07:43:56;;;;;;;24.55;16.00;;;16.40;92.50;;;;;;5015040;28;20072;-76
2021/09/03 07:46:22;;;;;;;22.30;14.48;;;16.40;92.50;;;;;;5030265;28;20030;-76
2021/09/03 07:48:48;;;;;;;23.50;14.15;;;16.50;92.50;;;;;;5013726;28;20536;-76
2021/09/03 07:51:15;;;;;;;22.98;15.63;;;16.60;92.50;;;;;;5015764;28;20091;-75
2021/09/03 07:53:40;;;;;;;22.60;14.15;;;16.60;92.50;;;;;;5030397;28;20473;-75
2021/09/03 07:56:06;;;;;;;25.08;14.57;;;16.70;92.40;;;;;;5015067;28;20036;-75
2021/09/03 07:58:31;;;;;;;19.20;12.40;;;16.80;92.40;;;;;;4997216;28;20600;-75
2021/09/03 08:00:57;;;;;;;21.42;13.52;;;16.80;92.40;;;;;;5013815;28;20140;-75
2021/09/03 08:03:23;;;;;;;19.25;12.80;;;16.90;92.30;;;;;;5013738;28;20058;-75
2021/09/03 08:05:48;;;;;;;21.83;13.10;;;16.90;92.20;;;;;;5030385;28;20371;-75
2021/09/03 08:08:14;;;;;;;21.35;12.60;;;17.00;92.20;;;;;;5014888;28;20037;-75
2021/09/03 08:10:40;;;;;;;23.08;13.80;;;17.10;92.10;;;;;;5015198;28;20053;-75
2021/09/03 08:13:09;;;;;;;19.80;11.82;;;17.10;92.00;;;;;;5014807;28;20033;-75
2021/09/03 08:15:35;;;;;;;19.05;12.07;;;17.20;92.00;;;;;;5013474;28;20093;-75
2021/09/03 08:18:02;;;;;;;20.98;11.82;;;17.30;91.90;;;;;;5014838;28;20022;-75
2021/09/03 08:20:29;;;;;;;19.58;10.98;;;17.40;91.80;;;;;;5013708;28;20069;-74
2021/09/03 08:22:54;;;;;;;17.45;11.43;;;17.50;91.80;;;;;;5013112;28;20113;-74
2021/09/03 08:25:20;;;;;;;19.77;12.55;;;17.50;91.70;;;;;;5029849;28;20045;-73
2021/09/03 08:27:47;;;;;;;17.98;11.40;;;17.60;91.60;;;;;;5013367;28;20026;-73
2021/09/03 08:30:14;;;;;;;19.30;10.32;;;17.70;91.50;;;;;;5011975;28;20076;-74
2021/09/03 08:32:39;;;;;;;19.50;11.20;;;17.80;91.50;;;;;;5013120;28;20494;-74
2021/09/03 08:35:05;;;;;;;16.00;9.65;;;17.80;91.30;;;;;;5012030;28;20036;-75
2021/09/03 08:37:31;;;;;;;17.85;10.50;;;18.00;91.20;;;;;;5009506;28;20044;-76
2021/09/03 08:39:57;;;;;;;15.90;9.38;;;18.00;91.00;;;;;;5013596;28;20030;-76
2021/09/03 08:42:22;;;;;;;17.40;10.77;;;18.10;90.80;;;;;;5013802;28;20033;-73
2021/09/03 08:44:51;;;;;;;17.58;10.02;;;18.20;90.70;;;;;;4996500;28;20080;-73
2021/09/03 08:47:20;;;;;;;15.85;9.63;;;18.20;90.60;;;;;;5012819;28;20068;-73
2021/09/03 08:49:46;;;;;;;15.82;9.48;;;18.30;90.50;;;;;;5012584;28;20080;-73
2021/09/03 08:52:11;;;;;;;15.10;9.85;;;18.40;90.30;;;;;;4996317;28;20116;-73
2021/09/03 08:54:37;;;;;;;15.10;9.80;;;18.50;90.10;;;;;;5012820;28;20041;-73
2021/09/03 08:57:04;;;;;;;17.20;9.45;;;18.60;90.00;;;;;;5012324;28;20492;-73
2021/09/03 08:59:31;;;;;;;14.65;8.40;;;18.70;89.80;;;;;;5012131;28;20026;-73
2021/09/03 09:02:14;;;;;;;16.65;8.57;;;18.70;89.50;;;;;;5025502;28;20038;-73
2021/09/03 09:04:42;;;;;;;15.88;8.63;;;18.90;89.20;;;;;;5025688;28;20041;-73
2021/09/03 09:07:08;;;;;;;18.02;9.15;;;19.00;88.70;;;;;;5013597;28;20495;-73
2021/09/03 09:09:39;;;;;;;14.35;8.80;;;19.10;88.40;;;;;;5011373;28;20021;-73
2021/09/03 09:12:07;;;;;;;14.95;8.57;;;19.20;88.30;;;;;;5009777;28;20497;-73
2021/09/03 09:14:59;;;;;;;14.05;8.88;;;19.30;87.90;;;;;;5020036;28;20032;-75
2021/09/03 09:17:37;;;;;;;12.48;8.40;;;19.40;87.30;;;;;;5010699;28;20021;-73
2021/09/03 09:20:05;;;;;;;15.45;8.55;;;19.50;87.10;;;;;;5023145;28;20050;-74
2021/09/03 09:22:54;;;;;;;14.18;7.68;;;19.60;86.80;;;;;;5012884;28;20032;-75
2021/09/03 09:25:24;;;;;;;14.63;8.40;;;19.70;86.20;;;;;;5027653;28;20030;-76
2021/09/03 09:27:50;;;;;;;14.77;8.90;;;19.80;85.70;;;;;;5012535;28;20040;-75
2021/09/03 09:30:21;;;;;;;14.85;8.80;;;19.90;85.20;;;;;;5011795;28;20529;-75
2021/09/03 09:33:19;;;;;;;11.90;8.10;;;20.00;84.70;;;;;;5010988;28;20026;-75
2021/09/03 09:35:53;;;;;;;13.38;8.15;;;20.10;84.30;;;;;;5010613;28;20033;-75
2021/09/03 09:38:20;;;;;;;;;;;20.20;84.10;;;;;;5012139;28;20113;-74
2021/09/03 09:40:49;;;;;;;16.73;7.10;;;20.30;83.50;;;;;;5013530;28;20381;-77
2021/09/03 09:43:25;;;;;;;14.85;7.60;;;20.40;83.40;;;;;;5011661;28;20026;-75
2021/09/03 09:46:13;;;;;;;14.60;7.80;;;20.50;82.70;;;;;;5010232;28;20490;-75
2021/09/03 09:48:51;;;;;;;12.45;7.63;;;20.60;82.10;;;;;;5027570;28;20026;-75
2021/09/03 09:51:23;;;;;;;9.52;5.93;;;20.60;81.70;;;;;;5010568;28;20508;-74
2021/09/03 09:53:54;;;;;;;8.98;6.55;;;20.70;81.50;;;;;;5012507;28;20049;-76
2021/09/03 09:56:25;;;;;;;12.05;7.30;;;20.90;81.30;;;;;;5012842;28;20109;-75
2021/09/03 09:58:53;;;;;;;12.38;7.07;;;21.00;80.90;;;;;;5012245;28;20042;-73
2021/09/03 10:01:20;;;;;;;12.05;7.07;;;21.00;80.50;;;;;;5011429;28;20025;-73
2021/09/03 10:03:50;;;;;;;11.00;7.07;;;21.10;79.60;;;;;;5012663;28;20052;-73
2021/09/03 10:06:17;;;;;;;14.48;7.03;;;21.20;79.30;;;;;;5012679;28;20465;-73
2021/09/03 10:08:45;;;;;;;11.85;6.60;;;21.40;78.90;;;;;;5011406;28;20014;-72
2021/09/03 10:11:14;;;;;;;9.25;5.47;;;21.70;78.50;;;;;;5012755;28;20418;-73
2021/09/03 10:13:40;;;;;;;10.70;5.95;;;21.90;77.90;;;;;;4995713;28;20033;-73
2021/09/03 10:16:06;;;;;;;11.63;5.80;;;22.30;77.50;;;;;;5013030;28;20144;-73
2021/09/03 10:18:32;;;;;;;10.80;6.10;;;22.60;76.40;;;;;;5010937;28;20152;-73
2021/09/03 10:21:02;;;;;;;9.55;5.30;;;23.10;75.80;;;;;;5012948;28;20053;-72
2021/09/03 10:23:48;;;;;;;10.55;4.82;;;23.50;75.30;;;;;;5014715;28;20104;-73
2021/09/03 10:26:14;;;;;;;15.38;5.43;;;24.20;73.80;;;;;;5014494;28;20356;-74
2021/09/03 10:28:40;;;;;;;12.73;5.35;;;24.80;73.30;;;;;;5023119;28;20026;-74
2021/09/03 10:31:09;;;;;;;8.43;4.88;;;25.50;72.20;;;;;;5006699;28;20084;-74
2021/09/03 10:33:36;;;;;;;6.78;3.85;;;26.30;70.60;;;;;;5014879;28;20022;-73
2021/09/03 10:36:03;;;;;;;7.13;3.85;;;27.00;68.80;;;;;;5016102;28;20498;-74
2021/09/03 10:38:34;;;;;;;6.85;3.63;;;27.70;67.00;;;;;;5023613;28;20026;-74
2021/09/03 10:41:02;;;;;;;9.13;3.80;;;28.50;65.10;;;;;;5016311;28;20045;-75
2021/09/03 10:43:46;;;;;;;7.10;3.78;;;29.10;63.00;;;;;;5015041;28;20069;-74
2021/09/03 10:46:16;;;;;;;6.93;3.90;;;29.30;60.20;;;;;;5031600;28;20041;-75
2021/09/03 10:48:49;;;;;;;7.25;3.55;;;29.40;59.70;;;;;;5016275;28;20030;-74
2021/09/03 10:51:32;;;;;;;;;;;29.40;58.10;;;;;;5016441;28;20457;-75
2021/09/03 10:53:57;;;;;;;5.22;3.40;;;29.40;58.10;;;;;;5016009;28;19905;-74
2021/09/03 10:56:24;;;;;;;7.93;3.67;;;29.30;58.90;;;;;;5031463;28;20145;-76
2021/09/03 10:58:57;;;;;;;10.35;3.88;;;29.20;56.90;;;;;;5016175;28;20026;-74
2021/09/03 11:01:26;;;;;;;7.88;3.38;;;29.20;56.00;;;;;;5028458;28;20052;-75
2021/09/03 11:03:55;;;;;;;6.03;3.60;;;29.20;55.50;;;;;;5015642;28;20093;-75
2021/09/03 11:06:27;;;;;;;7.65;3.55;;;29.20;54.90;;;;;;5012854;28;20049;-75
2021/09/03 11:09:04;;;;;;;7.38;2.95;;;29.20;54.30;;;;;;5011733;28;20030;-75
2021/09/03 11:11:38;;;;;;;7.97;3.00;;;29.20;54.10;;;;;;5015935;28;20471;-74
2021/09/03 11:14:18;;;;;;;7.28;3.80;;;29.20;53.20;;;;;;5016053;28;20084;-75
2021/09/03 11:16:50;;;;;;;10.38;4.45;;;29.20;52.80;;;;;;5015870;28;20022;-75
2021/09/03 11:19:21;;;;;;;6.93;3.87;;;29.30;52.50;;;;;;5015999;28;20057;-75
2021/09/03 11:21:56;;;;;;;6.85;3.50;;;29.50;52.30;;;;;;5015942;28;20467;-76
2021/09/03 11:24:24;;;;;;;8.13;4.38;;;29.50;52.00;;;;;;5015750;28;20382;-75
2021/09/03 11:26:52;;;;;;;8.18;3.90;;;29.60;51.80;;;;;;5031176;28;20048;-75
2021/09/03 11:29:30;;;;;;;6.18;3.25;;;29.70;52.10;;;;;;5015809;28;20017;-75
2021/09/03 11:32:01;;;;;;;6.13;3.30;;;29.80;51.80;;;;;;5015810;28;20033;-75
2021/09/03 11:34:45;;;;;;;6.95;3.70;;;29.90;50.80;;;;;;5030226;28;20109;-74
2021/09/03 11:37:29;;;;;;;8.68;4.20;;;30.00;50.50;;;;;;5030720;28;20022;-74
2021/09/03 11:40:22;;;;;;;6.68;3.38;;;30.10;50.30;;;;;;5015527;28;20083;-75
2021/09/03 11:42:56;;;;;;;7.03;3.72;;;30.30;49.90;;;;;;5014696;28;20029;-76
2021/09/03 11:45:33;;;;;;;7.22;3.65;;;30.40;50.00;;;;;;5014540;28;20075;-75
2021/09/03 11:48:00;;;;;;;6.72;3.45;;;30.60;49.60;;;;;;5015415;28;20033;-75
2021/09/03 11:50:30;;;;;;;6.88;3.83;;;30.80;49.50;;;;;;5015647;28;20052;-75
2021/09/03 11:52:58;;;;;;;7.05;4.30;;;30.90;48.90;;;;;;5014569;28;20030;-76
2021/09/03 11:55:25;;;;;;;9.00;4.55;;;31.00;48.50;;;;;;5015600;28;20034;-76
2021/09/03 11:58:00;;;;;;;8.30;4.03;;;31.10;48.40;;;;;;5014363;28;20056;-75
2021/09/03 12:00:32;;;;;;;6.93;4.20;;;31.20;48.20;;;;;;5014101;28;20034;-76
2021/09/03 12:02:58;;;;;;;6.43;3.75;;;31.40;48.70;;;;;;5015008;28;20022;-76
2021/09/03 12:05:24;;;;;;;7.00;3.67;;;31.50;48.10;;;;;;5015109;28;20057;-77
2021/09/03 12:08:05;;;;;;;5.95;3.00;;;31.70;47.90;;;;;;4997748;28;20485;-78
2021/09/03 12:10:35;;;;;;;5.97;3.55;;;31.90;47.20;;;;;;5030360;28;20033;-77
2021/09/03 12:13:11;;;;;;;7.75;4.18;;;32.00;47.30;;;;;;5030359;28;20025;-77
2021/09/03 12:15:37;;;;;;;7.05;3.00;;;32.20;46.70;;;;;;5013228;28;20022;-78
2021/09/03 12:18:28;;;;;;;8.00;4.05;;;32.40;46.70;;;;;;5013615;28;20116;-78
2021/09/03 12:21:04;;;;;;;5.93;3.75;;;32.50;46.10;;;;;;5013366;28;20033;-77
2021/09/03 12:23:42;;;;;;;7.13;3.90;;;32.60;45.90;;;;;;5029634;28;20030;-77
2021/09/03 12:26:11;;;;;;;7.97;3.80;;;32.80;45.60;;;;;;5014731;28;20097;-78
2021/09/03 12:28:38;;;;;;;5.70;3.40;;;32.90;45.70;;;;;;5013605;28;20022;-79
2021/09/03 12:31:07;;;;;;;7.22;3.92;;;33.00;45.50;;;;;;5013571;28;20018;-80
2021/09/03 12:33:33;;;;;;;6.65;4.15;;;33.20;45.00;;;;;;5029786;28;20013;-78
2021/09/03 12:36:05;;;;;;;8.15;4.35;;;33.30;44.70;;;;;;5014568;28;20030;-78